Contenu

METAR / TAF

La liste des METAR et des TAF n’est pas destinée pour un briefing météo pour des raisons techniques (disponibilité, cycle de renouvellement). Il faut plutôt utiliser le skybriefing de Skyguide ou le TAMSI (plateforme de self-briefing météo conçue par MétéoSuisse pour les entreprises dans le domaine de l’aéronautique, questions et demandes d’informations à 

Formulaire de contact

 

METAR Suisse

METAR     LSZH 032220Z VRB01KT 8000 -RA SCT006 SCT011 BKN035 13/12
               Q1013 NOSIG=
METAR     LSZH 032250Z VRB02KT 8000 -RA FEW005 SCT008 BKN055 13/13
               Q1013 NOSIG=
METAR     LSGG 032220Z AUTO 26003KT 9999 FEW045 BKN060 14/13 Q1015
               NOSIG=
METAR     LSGG 032250Z AUTO VRB02KT 9999 FEW043 SCT060 BKN090 14/13
               Q1015 NOSIG=
METAR CCB LFSB 032300Z AUTO 27003KT 9999 -RA BKN015 BKN039 OVC086
               15/14 Q1014 NOSIG=
METAR     LSZB 032220Z AUTO VRB03KT 9999 FEW033 BKN038 BKN042 13/12
               Q1014=
METAR     LSZB 032250Z AUTO 04002KT 9999 FEW018 BKN036 BKN040 13/12
               Q1014=
METAR     LSZA 032220Z AUTO VRB03KT 9999 FEW075 SCT090 BKN100 16/13
               Q1006=
METAR     LSZA 032250Z AUTO VRB02KT 9999 -RA FEW075 BKN085 16/14
               Q1006=
METAR     LSZG 032220Z AUTO VRB01KT 8000 -DZ FEW034 14/13 Q1014=
METAR     LSZG 032250Z AUTO 09003KT 9999 -RA SCT009 SCT055 14/13
               Q1014=
METAR     LSZR 032220Z AUTO 24007KT 160V290 6000 +RA OVC010 14/12
               Q1012=
METAR     LSZR 032250Z AUTO 34009KT 9999 -RA FEW008 SCT010 BKN032
               15/13 Q1012=
METAR     LSGS 032220Z AUTO VRB02KT 9999 NCD 14/11 Q1014=
METAR     LSGS 032250Z AUTO 25006KT 240V320 9999 SCT085 14/11 Q1014=
METAR     LSGC 032220Z AUTO 23004KT 190V260 9999 BKN021 10/09 Q1015=
METAR     LSGC 032250Z AUTO 23003KT 160V280 9999 OVC018 10/09 Q1015=
METAR     LSZC 032220Z AUTO VRB02KT 5000 +RA FEW010 SCT020 OVC037
               12/10 Q1015=
METAR     LSZC 032250Z AUTO 26003KT 210V310 9999 RA BKN028 12/11
               Q1014=
METAR     LSZL 032220Z AUTO 10007KT 9999NDV BKN100 18/11 Q1006 RMK=
METAR     LSZL 032250Z AUTO 11009KT 070V140 9999NDV BKN100 19/10
               Q1006 RMK=
METAR     LSZS 032220Z AUTO 04007KT 9999 -RA SCT030 SCT044 05/05
               Q1012=
METAR     LSZS 032250Z AUTO 04005KT 9999 -RA FEW030 SCT042 BKN047
               05/05 Q1012=
METAR     LSMA 032220Z AUTO VRB02KT 8000NDV RA FEW010 OVC036 12/11
               Q1014 RMK=
METAR     LSMA 032250Z AUTO 19004KT 150V260 4900NDV +RA FEW011
               SCT031 OVC038 12/11 Q1014 RMK=
METAR     LSMD 032220Z AUTO VRB01KT 9000NDV RA SCT018 SCT046 13/11
               Q1013 RMK=
METAR     LSMD 032250Z AUTO 29004KT 260V330 9999NDV -RA FEW010
               SCT032 BKN063 13/11 Q1013 RERA RMK=
METAR     LSME 032220Z AUTO 19003KT 080V240 7000NDV +RA //////
               12/11 Q1014 RMK MIS=
METAR     LSME 032250Z AUTO 22004KT 170V250 6000NDV RA ////// 12/12
               Q1014 RERA RMK MIS=
METAR     LSMM 032220Z AUTO 06003KT 6000NDV RA SCT002 BKN042 OVC051
               11/11 Q1015 RMK=
METAR     LSMM 032250Z AUTO VRB01KT 7000NDV RA SCT004 BKN025 BKN046
               11/10 Q1015 RMK=
METAR     LSMP 032220Z AUTO 18004KT 9999NDV -RA FEW015 SCT045
               BKN056 14/13 Q1014 RERA RMK=
METAR     LSMP 032250Z AUTO 19006KT 9999NDV -RA FEW045 BKN052
               BKN061 14/13 Q1014 RERA RMK=
Actualisé le mardi 04 août 2020 à 01h10

TAF Suisse

TAF     LSZH 032025Z 0321/0503 VRB03KT 9999 RA SCT020 BKN040
             TX18/0415Z TN13/0403Z TEMPO 0321/0406 3000 +RA BKN012
             BECMG 0406/0408 NSW TEMPO 0410/0418 SHRA FEW040TCU
             BECMG 0418/0421 CAVOK=
TAF     LSGG 032025Z 0321/0503 VRB03KT 9999 FEW020 BKN060
             TX21/0415Z TN12/0406Z PROB30 TEMPO 0321/0414 SHRA
             SCT040TCU BECMG 0409/0411 04010KT=
TAF     LFSB 031700Z 0318/0418 VRB04KT 9999 FEW010 BKN070 BECMG
             0319/0321 30005KT TEMPO 0319/0323 4000 SHRA FEW030CB
             BKN050 TEMPO 0323/0415 -SHRA FEW025TCU BKN030 PROB40
             TEMPO 0402/0408 BKN008 BECMG 0413/0415 13005KT=
TAF AAH LSGS 032000Z 0320/0324 CNL=
TAF     LSGS 031425Z 0315/0324 24010KT 9999 FEW025 SCT060 BKN090
             TEMPO 0315/0319 SHRA BECMG 0317/0320 VRB03KT=
TAF AAF LSZA 031950Z 0319/0324 CNL=
TAF     LSZA 031425Z 0315/0324 VRB03KT 9999 FEW070 BKN110 TEMPO
             0315/0324 SHRA SCT060TCU PROB40 TEMPO 0315/0318
             19015G25KT 4000 TSRA SCT060CB PROB30 0318/0324
             01015G30KT=
TAF AAA LSZB 031950Z 0319/0324 CNL=
TAF     LSZB 031425Z 0315/0324 VRB03KT 9999 SCT020 BKN050 TEMPO
             0315/0321 SHRA BKN030TCU PROB30 TEMPO 0315/0317 4000
             TSRA BKN030CB=
TAF AAB LSZG 031950Z 0319/0324 CNL=
TAF     LSZG 031425Z 0315/0324 23008KT 9999 SCT012 BKN070 TEMPO
             0315/0317 4000 SHRA BKN040TCU PROB40 TEMPO 0315/0324
             4000 RA BKN012=
TAF     LSZL 031725Z 0318/0403 11005KT 9999 SCT030 BKN070 BKN090
             TEMPO 0318/0321 SHRA SCT050TCU PROB30 TEMPO 0318/0321
             TSRA SCT050CB PROB30 0318/0321 08010G25KT=
TAF AAC LSZR 031950Z 0319/0324 CNL=
TAF     LSZR 031425Z 0315/0324 VRB03KT 9999 SCT020 BKN065 TEMPO
             0315/0318 SHRA SCT020TCU PROB40 TEMPO 0315/0318
             29012KT 3500 TSRA SCT020CB BECMG 0318/0321 RA PROB40
             0318/0324 3000 BKN013=
TAF RRA LSGC 031425Z 0315/0324 VRB03KT 9999 FEW015 BKN045 TEMPO
             0315/0318 RA=
TAF AAG LSGC 032000Z 0320/0324 CNL=
TAF AAE LSZC 031950Z 0319/0324 CNL=
TAF     LSZC 031425Z 0315/0324 03002KT 9999 FEW010 BKN070 TEMPO
             0315/0324 RA PROB40 TEMPO 0315/0324 4000 +RA BKN013=
TAF AAD LSZS 031950Z 0319/0324 CNL=
TAF     LSZS 031425Z 0315/0324 03008KT 9999 SCT013 SCT050
             TX13/0315Z TEMPO 0315/0324 02010G25KT SHRA SCT030TCU
             PROB40 TEMPO 0315/0319 22015G25KT 4000 TSRA BKN008
             BKN030CB=
TAF     LSMA 031625Z 0317/0423 VRB03KT 9999 RA FEW012 SCT030 OVC040
             PROB40 TEMPO 0319/0406 4000 +RA BKN012 BECMG
             0406/0408 NSW TEMPO 0408/0417 SHRA FEW030TCU=
TAF     LSMD 031625Z 0317/0423 30005KT 9999 RA SCT009 SCT027 BKN034
             PROB40 TEMPO 0319/0406 4000 +RA BKN012 BECMG
             0406/0408 NSW TEMPO 0410/0418 SHRA FEW030TCU=
TAF     LSME 031625Z 0317/0423 VRB02KT 9999 RA FEW009 SCT014 PROB40
             TEMPO 0317/0406 4000 +RA BKN012 BECMG 0406/0408 NSW
             TEMPO 0408/0417 SHRA FEW030TCU=
TAF     LSMM 030925Z 0310/0416 VRB02KT 9999 -RA FEW011 BKN050 TEMPO
             0310/0416 RA PROB30 TEMPO 0312/0416 3000 BKN009=
TAF     LSMP 031625Z 0317/0423 VRB03KT 9999 FEW025 SCT060 PROB30
             TEMPO 0321/0402 SHRA TEMPO 0409/0412 SHRA=
Actualisé le mardi 04 août 2020 à 00h03